Time;durP1;ratioP1;P1;durP2;ratioP2;P2;SDS_P1;SDS_P2;PMS_P1;PMS_P2;Temp;Humidity;BMP_temperature;BMP_pressure;BME280_temperature;BME280_humidity;BME280_pressure;Samples;Min_cycle;Max_cycle;Signal;HPM_P1;HPM_P2
2022/08/22 00:02:08;;;;;;;6.20;3.17;;;20.20;92.00;;;;;;5049374;28;20377;-67
2022/08/22 00:05:01;;;;;;;6.40;3.25;;;20.20;92.10;;;;;;5039782;28;20136;-67
2022/08/22 00:07:49;;;;;;;5.88;3.05;;;20.20;92.20;;;;;;5037567;28;20033;-67
2022/08/22 00:10:43;;;;;;;4.75;2.92;;;20.10;92.20;;;;;;5049029;28;20099;-67
2022/08/22 00:13:37;;;;;;;5.43;3.13;;;20.10;92.30;;;;;;5049301;28;20029;-67
2022/08/22 00:16:24;;;;;;;5.72;2.92;;;20.10;92.40;;;;;;5002790;28;20033;-67
2022/08/22 00:19:12;;;;;;;4.38;3.08;;;20.10;92.50;;;;;;5050245;28;20053;-67
2022/08/22 00:21:57;;;;;;;5.63;2.92;;;20.00;92.50;;;;;;5052719;28;20029;-67
2022/08/22 00:24:36;;;;;;;;;;;20.00;92.50;;;;;;5045673;28;20033;-67
2022/08/22 00:27:42;;;;;;;6.00;2.88;;;20.00;92.30;;;;;;5052646;28;20013;-67
2022/08/22 00:30:10;;;;;;;7.07;2.90;;;20.00;92.50;;;;;;4999420;28;20033;-67
2022/08/22 00:32:49;;;;;;;6.38;2.95;;;19.90;92.60;;;;;;5041931;28;20496;-67
2022/08/22 00:35:45;;;;;;;4.10;3.00;;;19.90;92.70;;;;;;5040352;28;20056;-66
2022/08/22 00:38:34;;;;;;;5.53;3.17;;;19.90;92.70;;;;;;5042899;28;20381;-67
2022/08/22 00:41:13;;;;;;;6.10;2.70;;;20.00;92.90;;;;;;5047367;28;20033;-67
2022/08/22 00:43:57;;;;;;;6.95;3.03;;;19.90;92.90;;;;;;5051184;28;20357;-67
2022/08/22 00:46:29;;;;;;;6.25;2.90;;;19.90;92.90;;;;;;5041478;28;20041;-67
2022/08/22 00:49:06;;;;;;;6.20;3.10;;;19.90;92.90;;;;;;5047742;28;20400;-67
2022/08/22 00:51:57;;;;;;;5.50;3.20;;;19.80;93.10;;;;;;5052205;28;20068;-67
2022/08/22 00:54:28;;;;;;;3.70;3.22;;;19.80;93.30;;;;;;5050654;28;20461;-67
2022/08/22 00:57:19;;;;;;;6.15;3.13;;;19.70;93.40;;;;;;5050413;28;20415;-68
2022/08/22 00:59:50;;;;;;;4.53;3.20;;;19.70;93.30;;;;;;5052580;28;20392;-67
2022/08/22 01:02:49;;;;;;;4.18;2.80;;;19.70;93.30;;;;;;5035787;28;20485;-67
2022/08/22 01:05:40;;;;;;;4.88;3.05;;;19.60;93.50;;;;;;5051973;28;20091;-67
2022/08/22 01:08:12;;;;;;;4.75;3.15;;;19.60;93.60;;;;;;5051618;28;20108;-67
2022/08/22 01:10:57;;;;;;;6.05;3.10;;;19.60;93.70;;;;;;5051996;28;20534;-65
2022/08/22 01:13:56;;;;;;;5.13;3.30;;;19.50;93.90;;;;;;5040739;28;20512;-66
2022/08/22 01:16:43;;;;;;;5.25;3.03;;;19.50;93.80;;;;;;5050417;28;20550;-65
2022/08/22 01:19:37;;;;;;;5.85;3.28;;;19.50;93.70;;;;;;5050342;28;20062;-66
2022/08/22 01:22:32;;;;;;;4.70;3.10;;;19.50;93.90;;;;;;5048134;28;20527;-65
2022/08/22 01:25:16;;;;;;;3.63;2.70;;;19.50;94.00;;;;;;5042930;28;20032;-66
2022/08/22 01:28:00;;;;;;;5.47;3.33;;;19.50;94.10;;;;;;5047897;28;20531;-66
2022/08/22 01:30:38;;;;;;;6.20;3.70;;;19.40;94.00;;;;;;5051130;28;20056;-66
2022/08/22 01:33:19;;;;;;;5.75;3.35;;;19.40;94.10;;;;;;5044032;28;20503;-67
2022/08/22 01:35:58;;;;;;;5.97;3.17;;;19.40;94.30;;;;;;5046932;28;20389;-66
2022/08/22 01:39:01;;;;;;;7.43;3.45;;;19.40;94.20;;;;;;5042958;28;20481;-67
2022/08/22 01:41:45;;;;;;;5.03;3.22;;;19.40;94.30;;;;;;5032211;28;20026;-66
2022/08/22 01:44:23;;;;;;;4.13;2.70;;;19.30;94.40;;;;;;5040388;28;20029;-65
2022/08/22 01:47:15;;;;;;;5.05;2.88;;;19.30;94.40;;;;;;5052362;28;20086;-66
2022/08/22 01:49:59;;;;;;;4.75;3.20;;;19.30;94.40;;;;;;5043177;28;20029;-65
2022/08/22 01:53:00;;;;;;;7.53;3.58;;;19.30;94.50;;;;;;5049233;28;20036;-66
2022/08/22 01:55:51;;;;;;;4.25;3.10;;;19.30;94.60;;;;;;5017209;28;20057;-67
2022/08/22 01:58:24;;;;;;;7.10;3.30;;;19.30;94.60;;;;;;5043376;28;20031;-67
2022/08/22 02:01:06;;;;;;;5.88;3.30;;;19.30;94.60;;;;;;5042770;28;20025;-67
2022/08/22 02:03:54;;;;;;;5.15;3.10;;;19.20;94.70;;;;;;5050646;28;20036;-67
2022/08/22 02:06:51;;;;;;;6.00;3.30;;;19.20;94.70;;;;;;5038268;28;20099;-67
2022/08/22 02:09:43;;;;;;;5.60;2.95;;;19.20;94.90;;;;;;5051576;28;20448;-67
2022/08/22 02:12:14;;;;;;;7.03;3.60;;;19.20;95.10;;;;;;5049767;28;20083;-66
2022/08/22 02:14:52;;;;;;;4.40;3.05;;;19.20;95.10;;;;;;5050498;28;20021;-66
2022/08/22 02:17:24;;;;;;;4.63;3.45;;;19.20;95.20;;;;;;5051459;28;20030;-66
2022/08/22 02:20:23;;;;;;;5.82;3.58;;;19.20;95.20;;;;;;5047297;28;20029;-66
2022/08/22 02:23:16;;;;;;;4.43;3.08;;;19.10;95.20;;;;;;5051216;28;20078;-66
2022/08/22 02:26:00;;;;;;;4.90;3.03;;;19.10;95.40;;;;;;5042300;28;20052;-66
2022/08/22 02:28:29;;;;;;;6.00;3.25;;;19.10;95.30;;;;;;5047250;28;20040;-66
2022/08/22 02:31:18;;;;;;;4.78;3.60;;;19.10;95.40;;;;;;5039772;28;20060;-66
2022/08/22 02:33:44;;;;;;;7.88;3.72;;;19.10;95.50;;;;;;5050777;28;20036;-66
2022/08/22 02:36:19;;;;;;;4.32;3.10;;;19.00;95.60;;;;;;5050363;28;20033;-66
2022/08/22 02:39:07;;;;;;;6.18;3.30;;;19.00;95.80;;;;;;5045980;28;20568;-66
2022/08/22 02:42:34;;;;;;;4.28;3.22;;;19.10;95.80;;;;;;5036488;28;20033;-66
2022/08/22 02:45:18;;;;;;;4.35;3.10;;;19.10;96.00;;;;;;5011743;28;20045;-66
2022/08/22 02:47:55;;;;;;;3.67;2.58;;;19.00;95.80;;;;;;5012900;28;20039;-65
2022/08/22 02:50:37;;;;;;;4.38;3.08;;;19.00;95.90;;;;;;5049014;28;20040;-66
2022/08/22 02:53:32;;;;;;;3.97;3.08;;;19.00;96.10;;;;;;5056770;28;20033;-65
2022/08/22 02:56:07;;;;;;;5.07;2.78;;;19.00;96.10;;;;;;5041730;28;20033;-65
2022/08/22 02:58:54;;;;;;;5.85;3.10;;;19.00;96.20;;;;;;5037199;28;20025;-65
2022/08/22 03:01:28;;;;;;;4.88;2.65;;;19.00;96.30;;;;;;5037773;28;20026;-65
2022/08/22 03:04:44;;;;;;;3.95;2.78;;;19.00;96.30;;;;;;5051420;28;20469;-67
2022/08/22 03:07:20;;;;;;;5.28;3.10;;;19.00;96.20;;;;;;5024140;28;20057;-66
2022/08/22 03:10:00;;;;;;;3.60;2.80;;;19.00;96.30;;;;;;5038901;28;20040;-66
2022/08/22 03:12:38;;;;;;;6.13;3.40;;;19.00;96.40;;;;;;5045589;28;20033;-65
2022/08/22 03:15:17;;;;;;;5.88;3.50;;;19.00;96.50;;;;;;5039013;28;20025;-66
2022/08/22 03:17:56;;;;;;;4.68;3.17;;;19.00;96.50;;;;;;5055257;28;20115;-66
2022/08/22 03:20:38;;;;;;;3.92;2.97;;;19.10;96.50;;;;;;5051726;28;20043;-66
2022/08/22 03:23:27;;;;;;;4.30;2.97;;;19.10;96.30;;;;;;5055031;28;20029;-65
2022/08/22 03:26:17;;;;;;;4.85;3.25;;;19.10;96.50;;;;;;5051650;28;20509;-65
2022/08/22 03:28:52;;;;;;;6.15;3.72;;;19.10;96.50;;;;;;5054684;28;20032;-65
2022/08/22 03:31:21;;;;;;;5.85;3.30;;;19.10;96.60;;;;;;5052423;28;20086;-65
2022/08/22 03:34:15;;;;;;;5.65;3.47;;;19.10;96.60;;;;;;5054360;28;20025;-65
2022/08/22 03:37:04;;;;;;;5.57;3.50;;;19.10;96.60;;;;;;5052575;28;20144;-65
2022/08/22 03:39:51;;;;;;;7.00;3.65;;;19.20;96.60;;;;;;5053665;28;20112;-65
2022/08/22 03:42:32;;;;;;;5.38;3.75;;;19.20;96.60;;;;;;5053991;28;20112;-66
2022/08/22 03:45:25;;;;;;;6.80;3.70;;;19.20;96.70;;;;;;5036814;28;20025;-66
2022/08/22 03:48:23;;;;;;;5.15;3.50;;;19.20;96.60;;;;;;5036525;28;20035;-66
2022/08/22 03:51:16;;;;;;;5.35;3.17;;;19.20;96.60;;;;;;5035176;28;20029;-66
2022/08/22 03:53:45;;;;;;;8.25;4.05;;;19.20;96.70;;;;;;5043493;28;20484;-66
2022/08/22 03:56:31;;;;;;;5.38;3.80;;;19.20;96.80;;;;;;5040251;28;20037;-65
2022/08/22 03:59:40;;;;;;;6.90;4.07;;;19.20;96.90;;;;;;5045363;28;20079;-66
2022/08/22 04:02:09;;;;;;;5.72;4.45;;;19.20;96.90;;;;;;5050427;28;20036;-65
2022/08/22 04:04:59;;;;;;;5.72;3.65;;;19.20;97.00;;;;;;5052254;28;20037;-65
2022/08/22 04:07:44;;;;;;;5.20;3.38;;;19.20;96.90;;;;;;5052646;28;20037;-66
2022/08/22 04:10:28;;;;;;;6.57;3.42;;;19.30;97.00;;;;;;5052740;28;20025;-66
2022/08/22 04:13:22;;;;;;;5.40;3.40;;;19.30;96.90;;;;;;5051063;28;20107;-66
2022/08/22 04:16:00;;;;;;;6.47;3.47;;;19.30;96.90;;;;;;5051426;28;20056;-66
2022/08/22 04:18:59;;;;;;;5.70;3.38;;;19.30;96.90;;;;;;5052907;28;20078;-66
2022/08/22 04:21:38;;;;;;;5.00;4.22;;;19.30;96.90;;;;;;5036756;28;20072;-66
2022/08/22 04:24:13;;;;;;;5.38;4.00;;;19.30;96.90;;;;;;5045543;28;20116;-66
2022/08/22 04:27:08;;;;;;;4.93;3.67;;;19.30;96.90;;;;;;5051850;28;20132;-66
2022/08/22 04:29:46;;;;;;;6.25;3.83;;;19.30;97.00;;;;;;5051213;28;20025;-66
2022/08/22 04:32:35;;;;;;;5.65;3.70;;;19.30;97.20;;;;;;5036617;28;20029;-66
2022/08/22 04:35:15;;;;;;;6.75;3.85;;;19.30;97.20;;;;;;5050350;28;20025;-66
2022/08/22 04:37:53;;;;;;;5.35;3.63;;;19.30;97.30;;;;;;5052979;28;20032;-66
2022/08/22 04:40:24;;;;;;;6.43;3.85;;;19.30;97.40;;;;;;5040923;28;20029;-66
2022/08/22 04:42:57;;;;;;;6.90;3.97;;;19.30;97.40;;;;;;5039324;28;20477;-66
2022/08/22 04:45:31;;;;;;;7.72;4.63;;;19.30;97.40;;;;;;5043421;28;20047;-66
2022/08/22 04:48:05;;;;;;;5.77;4.17;;;19.30;97.50;;;;;;5052291;28;20028;-66
2022/08/22 04:50:52;;;;;;;7.13;4.00;;;19.40;97.50;;;;;;5051589;28;20036;-66
2022/08/22 04:53:58;;;;;;;7.40;3.95;;;19.40;97.60;;;;;;5051271;28;20021;-66
2022/08/22 04:57:04;;;;;;;6.95;4.40;;;19.40;97.60;;;;;;5050224;28;20033;-66
2022/08/22 04:59:32;;;;;;;8.20;4.80;;;19.40;97.60;;;;;;5035305;28;20038;-66
2022/08/22 05:02:07;;;;;;;7.00;3.97;;;19.50;97.70;;;;;;5043799;28;20045;-66
2022/08/22 05:04:53;;;;;;;8.68;4.40;;;19.50;97.70;;;;;;5048511;28;20348;-66
2022/08/22 05:07:23;;;;;;;6.95;4.13;;;19.50;97.70;;;;;;5049966;28;20025;-66
2022/08/22 05:09:57;;;;;;;6.00;3.90;;;19.50;97.70;;;;;;5049802;28;20169;-66
2022/08/22 05:12:32;;;;;;;7.13;5.00;;;19.50;97.80;;;;;;5035847;28;20029;-65
2022/08/22 05:15:05;;;;;;;5.57;3.83;;;19.50;97.80;;;;;;5049389;28;20029;-65
2022/08/22 05:17:31;;;;;;;7.75;4.28;;;19.50;98.10;;;;;;5048023;28;20032;-65
2022/08/22 05:20:03;;;;;;;9.43;4.85;;;19.60;97.80;;;;;;5048479;28;20116;-65
2022/08/22 05:22:34;;;;;;;7.63;5.00;;;19.60;97.80;;;;;;5052304;28;20488;-65
2022/08/22 05:25:08;;;;;;;9.85;4.53;;;19.60;97.70;;;;;;5047345;28;20090;-65
2022/08/22 05:27:40;;;;;;;8.30;4.93;;;19.70;97.70;;;;;;5040906;28;20029;-65
2022/08/22 05:30:15;;;;;;;6.32;4.90;;;19.70;97.70;;;;;;5051173;28;20029;-65
2022/08/22 05:32:47;;;;;;;6.68;4.20;;;19.70;97.70;;;;;;5051606;28;20128;-65
2022/08/22 05:35:17;;;;;;;8.05;4.13;;;19.70;97.70;;;;;;5034343;28;20029;-68
2022/08/22 05:37:48;;;;;;;6.68;4.47;;;19.80;97.90;;;;;;5040875;28;20059;-70
2022/08/22 05:40:19;;;;;;;6.05;4.22;;;19.80;97.90;;;;;;5035154;28;20366;-69
2022/08/22 05:42:45;;;;;;;5.88;3.60;;;19.90;97.90;;;;;;5040210;28;20029;-70
2022/08/22 05:45:12;;;;;;;10.50;4.32;;;19.90;98.00;;;;;;5051357;28;20497;-71
2022/08/22 05:48:12;;;;;;;7.50;4.85;;;20.00;97.90;;;;;;5051543;28;20035;-70
2022/08/22 05:50:43;;;;;;;9.50;5.88;;;20.10;98.00;;;;;;5040007;28;20029;-68
2022/08/22 05:53:14;;;;;;;7.07;4.65;;;20.20;97.30;;;;;;5036285;28;20082;-68
2022/08/22 05:56:03;;;;;;;9.45;5.07;;;20.20;97.10;;;;;;5041204;28;20538;-68
2022/08/22 05:58:34;;;;;;;7.18;4.53;;;20.30;96.80;;;;;;5039191;28;20135;-68
2022/08/22 06:01:24;;;;;;;7.43;4.97;;;20.40;96.80;;;;;;5041653;28;20032;-68
2022/08/22 06:04:21;;;;;;;6.50;4.60;;;20.50;96.70;;;;;;5031690;28;20033;-68
2022/08/22 06:07:14;;;;;;;6.47;4.88;;;20.60;96.50;;;;;;5048516;28;20036;-68
2022/08/22 06:10:20;;;;;;;8.77;5.47;;;20.70;96.20;;;;;;5028751;28;20162;-68
2022/08/22 06:12:56;;;;;;;6.82;5.15;;;20.80;96.10;;;;;;5050033;28;20086;-68
2022/08/22 06:15:42;;;;;;;6.13;4.30;;;20.80;96.00;;;;;;5046144;28;22822;-68
2022/08/22 06:18:14;;;;;;;6.93;4.95;;;21.00;95.80;;;;;;5058585;28;20187;-68
2022/08/22 06:20:51;;;;;;;9.63;4.38;;;21.00;95.60;;;;;;5041688;28;20395;-68
2022/08/22 06:23:44;;;;;;;7.55;4.43;;;21.10;95.70;;;;;;5046680;28;20502;-67
2022/08/22 06:26:11;;;;;;;7.03;4.90;;;21.20;95.50;;;;;;5038908;28;20695;-68
2022/08/22 06:28:42;;;;;;;10.43;5.57;;;21.30;95.30;;;;;;5053262;28;20031;-68
2022/08/22 06:31:17;;;;;;;7.07;4.63;;;21.40;95.10;;;;;;5054428;28;20064;-68
2022/08/22 06:33:51;;;;;;;8.55;5.05;;;21.50;94.90;;;;;;5036920;28;20824;-68
2022/08/22 06:36:31;;;;;;;9.80;5.00;;;21.60;94.70;;;;;;5036342;28;20064;-68
2022/08/22 06:39:09;;;;;;;6.90;4.65;;;21.60;94.60;;;;;;5040054;28;20025;-69
2022/08/22 06:42:07;;;;;;;9.43;4.45;;;21.70;94.40;;;;;;5057871;28;20427;-68
2022/08/22 06:44:59;;;;;;;7.20;4.20;;;21.80;94.30;;;;;;5047605;28;20030;-69
2022/08/22 06:47:47;;;;;;;8.93;4.60;;;21.90;94.30;;;;;;5045100;28;20362;-69
2022/08/22 06:50:26;;;;;;;5.63;4.07;;;22.00;94.40;;;;;;5045588;28;20057;-69
2022/08/22 06:53:04;;;;;;;6.03;4.10;;;22.00;94.10;;;;;;5045397;28;20580;-69
2022/08/22 06:55:30;;;;;;;6.93;4.05;;;22.00;94.10;;;;;;5047314;28;20033;-69
2022/08/22 06:58:10;;;;;;;6.43;4.00;;;22.10;94.30;;;;;;5053802;28;20515;-68
2022/08/22 07:00:37;;;;;;;15.65;4.53;;;22.30;94.10;;;;;;5043112;28;20028;-68
2022/08/22 07:03:30;;;;;;;8.00;3.95;;;22.30;93.90;;;;;;5053034;28;20520;-69
2022/08/22 07:05:56;;;;;;;5.18;4.07;;;22.40;93.90;;;;;;5048099;28;20078;-69
2022/08/22 07:08:25;;;;;;;6.45;3.75;;;22.50;93.40;;;;;;5044562;28;20480;-68
2022/08/22 07:11:07;;;;;;;4.68;3.67;;;22.60;93.00;;;;;;5049771;28;20036;-68
2022/08/22 07:13:36;;;;;;;6.60;3.53;;;22.60;93.00;;;;;;5044254;28;20533;-68
2022/08/22 07:16:06;;;;;;;7.40;4.03;;;22.70;92.90;;;;;;5048518;28;20079;-68
2022/08/22 07:18:32;;;;;;;6.68;3.03;;;22.70;92.80;;;;;;5053366;28;20424;-69
2022/08/22 07:21:07;;;;;;;4.82;3.45;;;22.80;92.50;;;;;;5045254;28;20049;-68
2022/08/22 07:23:35;;;;;;;5.18;2.80;;;22.80;92.50;;;;;;5045713;28;20036;-68
2022/08/22 07:26:23;;;;;;;8.60;3.05;;;22.90;92.20;;;;;;5047532;28;20060;-69
2022/08/22 07:28:55;;;;;;;5.63;3.00;;;22.90;91.80;;;;;;5044150;28;20021;-68
2022/08/22 07:31:29;;;;;;;5.30;2.67;;;23.00;91.70;;;;;;5058134;28;20396;-69
2022/08/22 07:34:08;;;;;;;6.82;2.80;;;23.00;91.40;;;;;;5042286;28;20033;-68
2022/08/22 07:36:34;;;;;;;4.65;2.60;;;23.00;91.20;;;;;;5043469;28;20054;-68
2022/08/22 07:39:18;;;;;;;4.05;2.70;;;23.00;91.20;;;;;;5060517;28;20041;-69
2022/08/22 07:42:15;;;;;;;4.18;2.63;;;23.10;91.30;;;;;;5045682;28;20082;-68
2022/08/22 07:44:41;;;;;;;5.55;2.70;;;23.10;91.10;;;;;;5048195;28;20090;-69
2022/08/22 07:47:16;;;;;;;4.43;1.92;;;23.20;90.90;;;;;;5051140;28;20036;-69
2022/08/22 07:49:53;;;;;;;7.18;2.70;;;23.20;90.20;;;;;;5046543;28;20036;-69
2022/08/22 07:52:20;;;;;;;4.53;2.40;;;23.20;90.10;;;;;;5040978;28;20098;-69
2022/08/22 07:55:09;;;;;;;5.55;3.08;;;23.30;89.80;;;;;;5051699;28;20067;-70
2022/08/22 07:57:42;;;;;;;4.20;2.58;;;23.40;89.30;;;;;;5047362;28;20105;-69
2022/08/22 08:00:15;;;;;;;5.25;2.33;;;23.40;88.80;;;;;;5043364;28;20028;-71
2022/08/22 08:02:55;;;;;;;3.57;2.03;;;23.40;88.60;;;;;;5054520;28;20036;-69
2022/08/22 08:05:23;;;;;;;5.20;2.55;;;23.40;88.40;;;;;;5050063;28;20052;-69
2022/08/22 08:07:53;;;;;;;6.65;2.72;;;23.50;87.10;;;;;;5048626;28;20029;-69
2022/08/22 08:10:25;;;;;;;5.97;3.00;;;23.40;86.60;;;;;;5045084;28;20028;-69
2022/08/22 08:12:57;;;;;;;5.53;2.65;;;23.50;86.60;;;;;;5051014;28;20037;-70
2022/08/22 08:15:24;;;;;;;5.10;2.47;;;23.50;86.10;;;;;;5044629;28;20029;-69
2022/08/22 08:17:59;;;;;;;4.28;2.20;;;23.50;85.70;;;;;;5054364;28;20116;-69
2022/08/22 08:20:27;;;;;;;5.05;2.55;;;23.50;85.50;;;;;;5046583;28;20029;-69
2022/08/22 08:22:54;;;;;;;7.13;3.22;;;23.50;85.50;;;;;;5036359;28;20056;-70
2022/08/22 08:25:27;;;;;;;6.15;2.25;;;23.60;85.40;;;;;;5048258;28;20159;-70
2022/08/22 08:30:45;;;;;;;6.43;2.58;;;23.70;85.40;;;;;;5047393;28;20033;-69
2022/08/22 08:33:17;;;;;;;9.50;4.00;;;23.70;85.70;;;;;;5049061;28;20021;-70
2022/08/22 08:35:51;;;;;;;5.35;2.20;;;23.80;85.30;;;;;;5042206;28;20036;-69
2022/08/22 08:38:24;;;;;;;5.15;2.25;;;23.90;84.50;;;;;;5038241;28;20071;-69
2022/08/22 08:40:53;;;;;;;6.68;2.53;;;23.90;84.60;;;;;;5051535;28;20037;-69
2022/08/22 08:43:43;;;;;;;3.53;1.90;;;23.90;84.50;;;;;;5045977;28;20018;-70
2022/08/22 08:46:23;;;;;;;3.33;1.77;;;24.00;84.70;;;;;;5041940;28;20091;-69
2022/08/22 08:49:28;;;;;;;7.60;2.70;;;24.00;84.90;;;;;;5051323;28;20482;-69
2022/08/22 08:52:18;;;;;;;4.57;2.25;;;24.10;83.90;;;;;;5042110;28;20037;-69
2022/08/22 08:54:48;;;;;;;4.35;1.90;;;24.10;83.60;;;;;;5051107;28;20044;-69
2022/08/22 08:57:39;;;;;;;6.43;1.73;;;24.10;82.50;;;;;;5045815;28;20028;-70
2022/08/22 09:00:46;;;;;;;5.68;2.22;;;24.10;81.90;;;;;;5052207;28;20033;-69
2022/08/22 09:03:45;;;;;;;4.13;2.10;;;24.00;82.10;;;;;;5054433;28;20034;-69
2022/08/22 09:06:44;;;;;;;3.38;1.70;;;24.10;83.10;;;;;;5045660;28;20040;-68
2022/08/22 09:09:31;;;;;;;2.90;1.55;;;24.20;81.20;;;;;;5035571;28;20040;-68
2022/08/22 09:12:28;;;;;;;4.35;1.83;;;24.20;81.30;;;;;;5043751;28;20036;-68
2022/08/22 09:15:09;;;;;;;4.35;2.17;;;24.20;81.80;;;;;;5036099;28;20037;-69
2022/08/22 09:17:46;;;;;;;3.55;2.08;;;24.30;81.50;;;;;;5041899;28;20103;-69
2022/08/22 09:20:15;;;;;;;3.65;2.08;;;24.30;81.40;;;;;;5046344;28;20040;-69
2022/08/22 09:23:24;;;;;;;3.65;1.77;;;24.30;80.30;;;;;;5066641;28;20028;-70
2022/08/22 09:25:53;;;;;;;6.53;2.00;;;24.30;79.90;;;;;;5044695;28;20076;-69
2022/08/22 09:28:43;;;;;;;4.55;2.40;;;24.30;79.70;;;;;;5049397;28;20053;-70
2022/08/22 09:31:26;;;;;;;4.22;2.10;;;24.30;79.80;;;;;;5047496;28;20060;-68
2022/08/22 09:34:57;;;;;;;5.65;2.30;;;24.30;79.70;;;;;;5045668;28;20108;-68
2022/08/22 09:37:40;;;;;;;6.63;2.38;;;24.30;80.30;;;;;;4977240;28;20065;-69
2022/08/22 09:40:27;;;;;;;6.28;2.55;;;24.40;79.70;;;;;;5044861;28;20029;-69
2022/08/22 09:43:12;;;;;;;4.40;2.40;;;24.40;79.40;;;;;;5049991;28;20040;-68
2022/08/22 09:45:47;;;;;;;6.60;2.45;;;24.40;80.20;;;;;;5036556;28;20036;-69
2022/08/22 09:48:33;;;;;;;5.28;2.35;;;24.50;79.50;;;;;;5045448;28;20033;-69
2022/08/22 09:51:26;;;;;;;5.45;2.40;;;24.50;79.40;;;;;;5043990;28;20029;-69
2022/08/22 09:53:54;;;;;;;3.88;1.70;;;24.60;79.10;;;;;;5051955;28;20075;-68
2022/08/22 09:56:58;;;;;;;2.85;1.83;;;24.50;78.50;;;;;;5043990;28;20056;-68
2022/08/22 09:59:50;;;;;;;6.30;2.38;;;24.60;78.50;;;;;;5008770;28;20115;-69
2022/08/22 10:03:01;;;;;;;4.85;2.17;;;24.50;77.70;;;;;;5041465;28;20392;-69
2022/08/22 10:05:42;;;;;;;5.93;2.55;;;24.60;77.40;;;;;;5031158;28;20045;-68
2022/08/22 10:08:54;;;;;;;4.05;2.00;;;24.60;77.80;;;;;;5048242;28;20080;-69
2022/08/22 10:11:28;;;;;;;5.03;1.80;;;24.50;76.90;;;;;;5023895;28;20037;-69
2022/08/22 10:14:12;;;;;;;4.13;1.75;;;24.50;77.00;;;;;;5045246;28;20035;-69
2022/08/22 10:16:50;;;;;;;5.55;1.88;;;24.50;77.40;;;;;;5045650;28;20040;-69
2022/08/22 10:19:26;;;;;;;3.88;1.80;;;24.50;76.90;;;;;;5048271;28;20021;-70
2022/08/22 10:22:14;;;;;;;6.22;2.00;;;24.60;76.70;;;;;;5063921;28;20032;-69
2022/08/22 10:25:06;;;;;;;4.65;2.03;;;24.70;76.60;;;;;;5032891;28;20385;-70
2022/08/22 10:27:44;;;;;;;2.65;2.00;;;24.70;75.70;;;;;;5047372;28;20045;-69
2022/08/22 10:30:19;;;;;;;3.45;1.80;;;24.80;76.90;;;;;;5034874;28;20032;-70
2022/08/22 10:33:11;;;;;;;3.53;1.77;;;24.90;75.20;;;;;;5037059;28;20091;-69
2022/08/22 10:35:48;;;;;;;2.63;1.70;;;24.90;74.90;;;;;;5034492;28;20112;-70
2022/08/22 10:38:25;;;;;;;4.07;1.90;;;25.00;73.80;;;;;;5045593;28;20082;-69
2022/08/22 10:41:01;;;;;;;5.90;2.00;;;25.00;74.10;;;;;;5039319;28;20148;-69
2022/08/22 10:43:57;;;;;;;3.85;2.25;;;25.00;73.90;;;;;;5038382;28;20032;-69
2022/08/22 10:46:40;;;;;;;5.88;1.90;;;25.10;74.40;;;;;;5034339;28;20048;-69
2022/08/22 10:49:12;;;;;;;5.22;2.03;;;25.10;73.60;;;;;;5043830;28;20086;-70
2022/08/22 10:52:06;;;;;;;8.48;3.45;;;25.10;72.70;;;;;;5048418;28;20061;-70
2022/08/22 10:54:32;;;;;;;3.28;1.75;;;25.10;72.90;;;;;;5034913;28;20096;-69
2022/08/22 10:57:10;;;;;;;4.50;1.70;;;25.10;72.80;;;;;;5046661;28;20480;-70
2022/08/22 10:59:49;;;;;;;6.47;1.85;;;25.10;72.80;;;;;;5042486;28;20128;-69
2022/08/22 11:02:33;;;;;;;4.63;2.13;;;25.10;73.20;;;;;;5042473;28;20024;-69
2022/08/22 11:05:21;;;;;;;7.28;1.85;;;25.20;73.70;;;;;;5043724;28;20049;-70
2022/08/22 11:07:53;;;;;;;3.65;1.90;;;25.20;73.80;;;;;;5048894;28;20033;-70
2022/08/22 11:10:33;;;;;;;5.32;2.35;;;25.30;73.30;;;;;;5044374;28;20029;-69
2022/08/22 11:13:25;;;;;;;3.92;1.92;;;25.30;73.40;;;;;;5040817;28;20094;-69
2022/08/22 11:16:15;;;;;;;4.15;2.30;;;25.40;73.20;;;;;;5048542;28;20103;-70
2022/08/22 11:18:52;;;;;;;4.70;1.92;;;25.40;72.20;;;;;;5042847;28;20124;-69
2022/08/22 11:21:57;;;;;;;4.03;1.88;;;25.40;72.50;;;;;;5038038;28;20087;-69
2022/08/22 11:24:26;;;;;;;5.30;2.03;;;25.30;71.90;;;;;;5053287;28;20060;-67
2022/08/22 11:27:00;;;;;;;4.47;1.90;;;25.30;71.80;;;;;;5054395;28;20041;-69
2022/08/22 11:29:38;;;;;;;4.63;1.95;;;25.40;71.70;;;;;;5051320;28;20056;-69
2022/08/22 11:32:21;;;;;;;3.00;1.70;;;25.30;72.20;;;;;;5053865;28;20047;-69
2022/08/22 11:35:13;;;;;;;3.15;1.75;;;25.30;71.80;;;;;;5037153;28;20041;-67
2022/08/22 11:37:52;;;;;;;2.72;1.60;;;25.30;71.60;;;;;;5051137;28;20044;-69
2022/08/22 11:40:39;;;;;;;3.25;2.00;;;25.40;72.80;;;;;;5050475;28;20059;-69
2022/08/22 11:43:45;;;;;;;3.25;1.70;;;25.40;72.40;;;;;;5053982;28;20038;-69
2022/08/22 11:46:20;;;;;;;2.67;1.70;;;25.50;72.70;;;;;;5047080;28;20045;-68
2022/08/22 11:48:58;;;;;;;4.82;2.00;;;25.60;73.20;;;;;;5053091;28;20075;-68
2022/08/22 11:51:52;;;;;;;3.58;1.67;;;25.60;72.30;;;;;;5038180;28;20091;-68
2022/08/22 11:54:59;;;;;;;4.30;1.70;;;25.60;72.10;;;;;;5048714;28;20503;-67
2022/08/22 11:57:42;;;;;;;6.43;2.60;;;25.60;71.60;;;;;;4990523;28;20130;-67
2022/08/22 12:00:22;;;;;;;2.97;1.73;;;25.50;71.10;;;;;;5032457;28;20387;-69
2022/08/22 12:02:59;;;;;;;3.97;1.90;;;25.50;71.40;;;;;;5051718;28;20442;-69
2022/08/22 12:05:41;;;;;;;4.07;1.85;;;25.50;71.50;;;;;;5041023;28;20412;-70
2022/08/22 12:08:22;;;;;;;3.75;1.80;;;25.50;70.70;;;;;;5047566;28;20120;-68
2022/08/22 12:10:54;;;;;;;5.28;2.17;;;25.50;71.00;;;;;;5050655;28;20021;-70
2022/08/22 12:13:44;;;;;;;2.83;1.48;;;25.40;70.90;;;;;;5051393;28;20496;-69
2022/08/22 12:16:15;;;;;;;4.72;2.42;;;25.40;71.30;;;;;;5047181;28;20155;-69
2022/08/22 12:18:44;;;;;;;4.15;1.83;;;25.30;71.70;;;;;;5053373;28;20396;-69
2022/08/22 12:21:40;;;;;;;3.05;1.60;;;25.30;71.00;;;;;;5046571;28;20044;-69
2022/08/22 12:24:20;;;;;;;4.75;1.90;;;25.30;71.30;;;;;;5046038;28;20372;-69
2022/08/22 12:26:55;;;;;;;4.90;2.10;;;25.30;70.90;;;;;;5041016;28;20037;-69
2022/08/22 12:29:30;;;;;;;4.05;1.83;;;25.40;71.00;;;;;;5040107;28;20358;-69
2022/08/22 12:32:01;;;;;;;4.70;2.53;;;25.40;71.00;;;;;;5049307;28;20032;-69
2022/08/22 12:34:33;;;;;;;4.00;1.85;;;25.40;70.60;;;;;;5046811;28;20349;-69
2022/08/22 12:37:47;;;;;;;6.25;1.77;;;25.50;70.40;;;;;;5040408;28;20029;-67
2022/08/22 12:40:53;;;;;;;5.40;1.90;;;25.50;69.90;;;;;;5014031;28;20493;-70
2022/08/22 12:43:46;;;;;;;4.68;2.00;;;25.60;69.80;;;;;;5041391;28;20375;-69
2022/08/22 12:46:43;;;;;;;3.97;1.83;;;25.60;69.30;;;;;;5061133;28;20484;-69
2022/08/22 12:49:19;;;;;;;4.20;1.83;;;25.60;68.80;;;;;;5052465;28;20134;-69
2022/08/22 12:52:01;;;;;;;3.25;1.80;;;25.70;68.90;;;;;;5050775;28;20510;-69
2022/08/22 12:54:47;;;;;;;4.82;1.95;;;25.80;68.80;;;;;;5048390;28;20474;-70
2022/08/22 12:57:38;;;;;;;2.30;1.40;;;25.80;67.30;;;;;;5046839;28;20492;-70
2022/08/22 13:00:43;;;;;;;3.42;2.17;;;25.90;66.70;;;;;;5043833;28;20420;-70
2022/08/22 13:03:34;;;;;;;3.60;1.70;;;26.00;67.20;;;;;;4993673;28;20604;-70
2022/08/22 13:06:24;;;;;;;2.80;1.70;;;26.00;66.40;;;;;;5017320;28;20564;-69
2022/08/22 13:08:51;;;;;;;2.40;1.60;;;26.10;66.10;;;;;;5041383;28;20492;-70
2022/08/22 13:11:18;;;;;;;3.78;1.60;;;26.10;65.80;;;;;;5044600;28;20024;-71
2022/08/22 13:13:53;;;;;;;4.30;1.80;;;26.00;65.00;;;;;;5051773;28;20040;-69
2022/08/22 13:16:21;;;;;;;5.90;1.80;;;25.90;64.60;;;;;;5048609;28;20346;-69
2022/08/22 13:19:05;;;;;;;4.13;1.90;;;26.00;65.70;;;;;;5037378;28;20025;-69
2022/08/22 13:21:34;;;;;;;4.72;2.38;;;26.00;65.20;;;;;;5045830;28;20116;-69
2022/08/22 13:24:21;;;;;;;4.03;2.45;;;26.00;65.60;;;;;;5051372;28;20511;-69
2022/08/22 13:26:55;;;;;;;3.25;1.60;;;26.10;66.30;;;;;;5045031;28;20041;-69
2022/08/22 13:29:40;;;;;;;2.67;1.50;;;26.10;66.80;;;;;;5054589;28;20020;-69
2022/08/22 13:32:09;;;;;;;3.13;1.83;;;26.10;67.20;;;;;;5051177;28;20174;-69
2022/08/22 13:34:44;;;;;;;5.35;1.60;;;26.20;67.20;;;;;;5041936;28;20029;-69
2022/08/22 13:37:15;;;;;;;3.70;1.50;;;26.20;66.50;;;;;;5041531;28;20034;-68
2022/08/22 13:39:44;;;;;;;6.07;1.85;;;26.20;65.60;;;;;;5054563;28;20103;-69
2022/08/22 13:42:19;;;;;;;5.22;1.85;;;26.10;65.10;;;;;;5048798;28;20032;-68
2022/08/22 13:44:50;;;;;;;3.80;1.70;;;26.10;65.10;;;;;;5049408;28;20037;-68
2022/08/22 13:47:19;;;;;;;2.70;2.30;;;26.00;64.50;;;;;;5050585;28;20037;-69
2022/08/22 13:50:05;;;;;;;2.80;2.00;;;25.90;64.70;;;;;;5042099;28;20098;-68
2022/08/22 13:52:42;;;;;;;2.53;1.50;;;25.90;65.30;;;;;;5052691;28;20033;-68
2022/08/22 13:55:18;;;;;;;5.35;2.00;;;25.80;65.60;;;;;;5054993;28;20033;-69
2022/08/22 13:57:57;;;;;;;4.55;2.40;;;25.80;65.90;;;;;;5063665;28;20028;-70
2022/08/22 14:00:53;;;;;;;4.20;1.65;;;25.80;66.20;;;;;;5041649;28;20114;-71
2022/08/22 14:03:30;;;;;;;5.13;2.20;;;25.70;67.20;;;;;;5044359;28;20028;-71
2022/08/22 14:05:58;;;;;;;4.05;2.50;;;25.70;67.80;;;;;;5036292;28;20053;-71
2022/08/22 14:08:26;;;;;;;3.72;2.08;;;25.70;68.30;;;;;;5046163;28;20031;-71